Time;durP1;ratioP1;P1;durP2;ratioP2;P2;SDS_P1;SDS_P2;PMS_P1;PMS_P2;Temp;Humidity;BMP_temperature;BMP_pressure;BME280_temperature;BME280_humidity;BME280_pressure;Samples;Min_cycle;Max_cycle;Signal;HPM_P1;HPM_P2
2022/10/02 00:01:40;;;;;;;9.77;1.63;;;;;;;11.47;100.00;100024.97;5014228;28;20050;-81
2022/10/02 00:04:12;;;;;;;13.30;2.10;;;;;;;11.50;100.00;100032.44;5014279;28;20112;-82
2022/10/02 00:06:45;;;;;;;7.47;2.38;;;;;;;11.46;100.00;100021.44;4996292;28;20133;-82
2022/10/02 00:09:18;;;;;;;10.55;2.35;;;;;;;11.47;100.00;100033.16;5014132;28;20058;-81
2022/10/02 00:11:52;;;;;;;10.43;2.47;;;;;;;11.45;100.00;100025.31;5013854;28;20108;-82
2022/10/02 00:14:22;;;;;;;26.00;5.80;;;;;;;11.49;100.00;100020.75;5013740;28;20033;-81
2022/10/02 00:16:51;;;;;;;9.07;2.38;;;;;;;11.49;100.00;100025.41;5013538;28;20585;-82
2022/10/02 00:19:18;;;;;;;6.40;2.03;;;;;;;11.50;100.00;100033.25;5013721;28;20038;-82
2022/10/02 00:21:53;;;;;;;11.95;1.92;;;;;;;11.58;100.00;100034.25;5013821;28;20022;-81
2022/10/02 00:24:25;;;;;;;4.55;1.48;;;;;;;11.51;100.00;100023.13;5013957;28;20018;-82
2022/10/02 00:27:02;;;;;;;5.53;2.22;;;;;;;11.49;100.00;100030.88;5013488;28;20026;-81
2022/10/02 00:29:42;;;;;;;8.55;2.15;;;;;;;11.46;100.00;100026.91;5013625;28;20087;-82
2022/10/02 00:32:30;;;;;;;9.80;1.88;;;;;;;11.47;100.00;100033.94;4995744;28;20200;-82
2022/10/02 00:35:35;;;;;;;9.45;2.42;;;;;;;11.46;100.00;100032.34;5013574;28;20056;-82
2022/10/02 00:38:25;;;;;;;12.63;3.55;;;;;;;11.48;100.00;100035.53;5013377;28;20059;-82
2022/10/02 00:40:53;;;;;;;7.95;2.80;;;;;;;11.53;100.00;100035.28;5012931;28;20042;-82
2022/10/02 00:43:27;;;;;;;7.63;1.83;;;;;;;11.50;100.00;100035.97;5013267;28;20076;-83
2022/10/02 00:46:11;;;;;;;6.72;2.33;;;;;;;11.52;100.00;100041.88;4995661;28;20069;-82
2022/10/02 00:48:49;;;;;;;10.43;1.98;;;;;;;11.53;100.00;100048.13;5013493;28;20033;-82
2022/10/02 00:51:34;;;;;;;8.68;1.73;;;;;;;11.53;100.00;100043.47;5013121;28;20475;-83
2022/10/02 00:54:34;;;;;;;7.13;1.77;;;;;;;11.55;100.00;100043.13;5013067;28;20112;-82
2022/10/02 00:57:18;;;;;;;18.65;4.10;;;;;;;11.55;100.00;100049.38;4995321;28;20057;-83
2022/10/02 01:00:18;;;;;;;11.27;2.30;;;;;;;11.52;100.00;100041.88;5013096;28;20028;-82
2022/10/02 01:03:10;;;;;;;13.38;3.28;;;;;;;11.51;100.00;100044.94;4938067;28;20077;-82
2022/10/02 01:05:36;;;;;;;9.15;1.75;;;;;;;11.57;100.00;100038.09;4995312;28;20426;-82
2022/10/02 01:08:03;;;;;;;11.48;2.22;;;;;;;11.54;100.00;100047.78;4995180;28;20483;-83
2022/10/02 01:10:28;;;;;;;6.32;1.70;;;;;;;11.55;100.00;100051.28;5012892;28;20026;-82
2022/10/02 01:12:56;;;;;;;12.85;2.88;;;;;;;11.58;100.00;100051.41;4995253;28;20052;-83
2022/10/02 01:15:28;;;;;;;8.05;1.95;;;;;;;11.56;100.00;100053.69;5012860;28;20025;-83
2022/10/02 01:17:54;;;;;;;17.05;3.45;;;;;;;11.55;100.00;100052.09;4995357;28;20406;-83
2022/10/02 01:20:28;;;;;;;9.95;1.55;;;;;;;11.59;100.00;100047.56;5012798;28;20361;-82
2022/10/02 01:23:02;;;;;;;12.10;2.92;;;;;;;11.60;100.00;100054.59;4994987;28;20044;-82
2022/10/02 01:25:28;;;;;;;10.95;1.88;;;;;;;11.75;100.00;100051.16;5012826;28;20057;-83
2022/10/02 01:27:53;;;;;;;11.73;2.47;;;;;;;11.67;100.00;100054.81;4978756;28;20060;-84
2022/10/02 01:30:20;;;;;;;10.18;3.10;;;;;;;11.64;100.00;100055.50;5012338;28;20083;-82
2022/10/02 01:32:54;;;;;;;8.30;2.95;;;;;;;11.66;100.00;100047.78;5012814;28;20478;-83
2022/10/02 01:35:22;;;;;;;7.40;2.28;;;;;;;11.67;100.00;100060.25;5012573;28;20047;-82
2022/10/02 01:37:50;;;;;;;9.15;2.03;;;;;;;11.74;100.00;100071.38;5012295;28;20030;-83
2022/10/02 01:40:26;;;;;;;4.93;2.53;;;;;;;11.74;100.00;100074.09;4994768;28;20034;-83
2022/10/02 01:42:56;;;;;;;11.02;2.28;;;;;;;11.75;100.00;100062.06;5012523;28;20029;-83
2022/10/02 01:45:42;;;;;;;9.20;1.90;;;;;;;11.75;100.00;100067.50;4994893;28;20033;-83
2022/10/02 01:48:38;;;;;;;7.20;1.73;;;;;;;11.80;100.00;100071.19;5012758;28;20041;-83
2022/10/02 01:51:32;;;;;;;5.97;1.52;;;;;;;11.83;100.00;100067.78;5012710;28;20033;-82
2022/10/02 01:54:29;;;;;;;6.72;1.98;;;;;;;11.82;100.00;100066.19;5016317;28;20030;-83
2022/10/02 01:57:17;;;;;;;9.07;2.95;;;;;;;11.87;100.00;100066.75;4998755;28;20032;-82
2022/10/02 02:00:07;;;;;;;12.73;2.10;;;;;;;11.87;100.00;100069.47;5016223;28;20125;-82
2022/10/02 02:02:55;;;;;;;9.20;1.33;;;;;;;11.89;100.00;100064.47;5016277;28;20026;-83
2022/10/02 02:05:38;;;;;;;8.00;2.10;;;;;;;12.00;100.00;100062.06;5016111;28;20126;-82
2022/10/02 02:08:18;;;;;;;7.70;1.52;;;;;;;12.00;100.00;100060.13;4998522;28;20022;-83
2022/10/02 02:11:05;;;;;;;6.80;1.42;;;;;;;11.99;100.00;100060.47;4998531;28;20347;-83
2022/10/02 02:14:24;;;;;;;19.05;2.78;;;;;;;11.92;100.00;100060.25;5015886;28;20022;-82
2022/10/02 02:16:56;;;;;;;8.00;1.92;;;;;;;11.94;100.00;100056.06;4939381;29;20031;-83
2022/10/02 02:19:50;;;;;;;7.20;2.28;;;;;;;11.89;100.00;100060.94;5006195;28;20376;-83
2022/10/02 02:22:23;;;;;;;12.07;2.10;;;;;;;11.89;100.00;100058.22;5016009;28;20030;-82
2022/10/02 02:24:51;;;;;;;7.97;1.98;;;;;;;11.89;100.00;100069.13;5015925;28;20490;-82
2022/10/02 02:27:23;;;;;;;8.77;2.40;;;;;;;11.86;100.00;100067.09;4998245;28;20056;-83
2022/10/02 02:29:53;;;;;;;9.35;2.17;;;;;;;11.85;100.00;100058.09;4998007;28;20033;-83
2022/10/02 02:32:24;;;;;;;11.23;2.50;;;;;;;11.85;100.00;100065.50;5015555;28;20029;-84
2022/10/02 02:35:06;;;;;;;8.88;1.83;;;;;;;11.87;100.00;100055.03;5015551;28;20038;-82
2022/10/02 02:37:38;;;;;;;8.82;1.45;;;;;;;11.89;100.00;100059.00;5014343;28;20034;-83
2022/10/02 02:40:12;;;;;;;9.60;1.60;;;;;;;11.90;100.00;100057.06;4997746;28;20036;-83
2022/10/02 02:42:45;;;;;;;16.75;3.30;;;;;;;11.91;100.00;100058.66;4997996;28;20448;-83
2022/10/02 02:45:26;;;;;;;10.35;2.72;;;;;;;11.94;100.00;100058.78;5015230;28;20037;-83
2022/10/02 02:47:54;;;;;;;13.20;1.60;;;;;;;11.93;100.00;100057.19;4997806;28;20038;-83
2022/10/02 02:50:30;;;;;;;10.80;2.53;;;;;;;11.94;100.00;100055.25;5015170;28;20030;-81
2022/10/02 02:53:08;;;;;;;9.57;1.85;;;;;;;12.07;100.00;100051.34;5015297;28;20045;-83
2022/10/02 02:55:39;;;;;;;6.85;1.60;;;;;;;12.01;100.00;100053.53;4997751;28;20034;-83
2022/10/02 02:58:19;;;;;;;11.45;2.22;;;;;;;11.99;100.00;100055.00;5015225;28;20033;-84
2022/10/02 03:00:45;;;;;;;5.22;1.38;;;;;;;12.03;100.00;100055.91;4997770;28;20030;-83
2022/10/02 03:03:11;;;;;;;12.13;2.55;;;;;;;12.02;100.00;100054.31;5015000;28;20340;-82
2022/10/02 03:05:45;;;;;;;13.32;2.63;;;;;;;12.02;100.00;100067.97;4997291;28;20053;-84
2022/10/02 03:08:34;;;;;;;12.63;2.05;;;;;;;12.01;100.00;100063.63;5015147;28;20022;-84
2022/10/02 03:11:50;;;;;;;13.60;1.70;;;;;;;12.01;100.00;100055.44;5015287;28;20026;-81
2022/10/02 03:14:30;;;;;;;9.00;2.03;;;;;;;11.99;100.00;100055.81;4981787;28;20044;-82
2022/10/02 03:17:33;;;;;;;14.02;2.28;;;;;;;12.04;100.00;100055.56;4997371;28;20032;-83
2022/10/02 03:20:15;;;;;;;9.55;1.38;;;;;;;11.99;100.00;100060.47;5014754;28;20041;-83
2022/10/02 03:22:59;;;;;;;7.35;1.13;;;;;;;12.02;100.00;100059.78;5015168;28;20025;-84
2022/10/02 03:25:40;;;;;;;12.10;2.58;;;;;;;12.02;100.00;100055.09;5014875;28;20432;-83
2022/10/02 03:28:52;;;;;;;9.05;1.80;;;;;;;12.00;100.00;100051.13;4997052;28;20099;-83
2022/10/02 03:31:20;;;;;;;11.63;2.13;;;;;;;11.99;100.00;100053.06;4934881;29;20122;-82
2022/10/02 03:33:47;;;;;;;4.00;1.75;;;;;;;11.97;100.00;100057.28;4934968;29;20042;-84
2022/10/02 03:36:16;;;;;;;14.68;1.73;;;;;;;11.95;100.00;100056.84;4978388;28;20044;-83
2022/10/02 03:38:43;;;;;;;7.75;1.95;;;;;;;11.97;100.00;100052.63;5014410;28;20021;-82
2022/10/02 03:41:10;;;;;;;9.63;2.58;;;;;;;12.00;100.00;100046.47;5014440;28;20029;-83
2022/10/02 03:43:37;;;;;;;10.88;2.05;;;;;;;11.99;100.00;100055.00;5014513;28;20014;-83
2022/10/02 03:46:02;;;;;;;11.93;2.33;;;;;;;11.99;100.00;100049.56;5014386;28;20026;-83
2022/10/02 03:48:27;;;;;;;8.93;2.70;;;;;;;12.03;100.00;100056.69;5014177;28;20580;-82
2022/10/02 03:50:53;;;;;;;;;;;;;;;12.04;100.00;100052.03;4996912;28;20018;-84
2022/10/02 03:53:22;;;;;;;9.65;2.25;;;;;;;12.06;100.00;100060.66;5014282;28;19920;-81
2022/10/02 03:55:56;;;;;;;12.48;2.17;;;;;;;12.12;100.00;100048.38;4996507;28;20061;-82
2022/10/02 03:58:23;;;;;;;7.97;1.95;;;;;;;12.14;100.00;100057.00;5014186;28;20034;-82
2022/10/02 04:01:06;;;;;;;16.52;2.60;;;;;;;12.17;100.00;100056.31;5014057;28;20080;-84
2022/10/02 04:03:42;;;;;;;7.00;1.55;;;;;;;12.25;100.00;100051.84;5014038;28;20018;-81
2022/10/02 04:06:20;;;;;;;13.18;2.33;;;;;;;12.26;100.00;100048.78;4995684;28;20136;-82
2022/10/02 04:09:01;;;;;;;7.53;1.48;;;;;;;12.27;100.00;100047.66;5014213;28;20025;-82
2022/10/02 04:11:35;;;;;;;10.18;1.85;;;;;;;12.33;100.00;100048.19;5014304;28;20045;-80
2022/10/02 04:14:21;;;;;;;13.43;2.95;;;;;;;12.35;100.00;100049.41;5013927;28;20109;-82
2022/10/02 04:17:14;;;;;;;8.10;1.88;;;;;;;12.37;100.00;100042.81;4995248;28;20565;-84
2022/10/02 04:19:47;;;;;;;13.65;2.25;;;;;;;12.38;100.00;100058.06;5013679;28;20049;-83
2022/10/02 04:22:33;;;;;;;8.63;1.55;;;;;;;12.38;100.00;100050.66;5014110;28;20390;-83
2022/10/02 04:25:08;;;;;;;10.90;2.00;;;;;;;12.40;100.00;100048.38;5013890;28;20083;-83
2022/10/02 04:27:55;;;;;;;14.82;2.00;;;;;;;12.38;100.00;100061.56;5014057;28;20025;-83
2022/10/02 04:30:20;;;;;;;8.80;1.67;;;;;;;12.39;100.00;100063.16;4997246;28;20121;-83
2022/10/02 04:32:46;;;;;;;8.88;1.80;;;;;;;12.39;100.00;100056.91;5014231;28;20104;-82
2022/10/02 04:35:52;;;;;;;11.77;1.83;;;;;;;12.38;100.00;100058.06;5013474;28;20034;-82
2022/10/02 04:38:46;;;;;;;7.55;1.95;;;;;;;12.38;100.00;100063.50;4953923;29;20039;-83
2022/10/02 04:41:17;;;;;;;8.25;1.42;;;;;;;12.37;100.00;100067.38;4996471;28;20064;-83
2022/10/02 04:44:36;;;;;;;11.88;1.70;;;;;;;12.37;100.00;100075.56;5014378;28;20030;-83
2022/10/02 04:47:32;;;;;;;6.82;1.20;;;;;;;12.40;100.00;100074.88;4934092;29;20469;-83
2022/10/02 04:50:30;;;;;;;6.80;1.98;;;;;;;12.33;100.00;100087.19;5013794;28;20045;-83
2022/10/02 04:53:19;;;;;;;3.92;1.15;;;;;;;12.28;100.00;100084.72;4973013;28;20034;-85
2022/10/02 04:55:56;;;;;;;5.93;1.60;;;;;;;12.24;100.00;100086.53;5013618;28;20044;-86
2022/10/02 04:58:55;;;;;;;4.25;1.38;;;;;;;12.20;100.00;100071.19;5013296;28;20125;-85
2022/10/02 05:01:26;;;;;;;7.43;1.75;;;;;;;12.15;100.00;100072.25;5010859;28;20026;-82
2022/10/02 05:04:23;;;;;;;4.78;1.42;;;;;;;12.13;100.00;100082.72;4995359;28;20033;-83
2022/10/02 05:06:59;;;;;;;;;;;;;;;12.08;100.00;100080.22;4995172;28;20499;-85
2022/10/02 05:10:02;;;;;;;7.15;1.38;;;;;;;12.05;100.00;100081.69;5011835;28;19973;-84
2022/10/02 05:12:52;;;;;;;3.80;1.50;;;;;;;12.07;100.00;100089.53;4995153;28;20076;-84
2022/10/02 05:15:47;;;;;;;12.32;1.52;;;;;;;12.00;100.00;100087.41;5012777;28;20034;-84
2022/10/02 05:18:34;;;;;;;5.05;1.70;;;;;;;12.03;100.00;100094.09;5013229;28;20030;-84
2022/10/02 05:21:17;;;;;;;6.25;1.67;;;;;;;11.96;100.00;100083.00;5012492;28;20425;-83
2022/10/02 05:23:58;;;;;;;4.53;1.30;;;;;;;11.90;100.00;100087.88;4995322;28;20033;-83
2022/10/02 05:26:38;;;;;;;3.33;1.45;;;;;;;11.89;100.00;100086.28;5012345;28;20534;-84
2022/10/02 05:29:14;;;;;;;4.30;1.50;;;;;;;11.91;100.00;100097.66;4994688;28;20105;-83
2022/10/02 05:32:14;;;;;;;6.38;1.45;;;;;;;11.91;100.00;100099.56;4995239;28;20025;-86
2022/10/02 05:35:01;;;;;;;6.18;1.30;;;;;;;11.90;100.00;100101.50;4998075;28;20026;-86
2022/10/02 05:37:41;;;;;;;5.05;1.58;;;;;;;11.90;100.00;100095.25;5013482;28;20529;-86
2022/10/02 05:40:32;;;;;;;8.10;1.40;;;;;;;11.90;100.00;100106.97;4997907;28;20026;-87
2022/10/02 05:43:14;;;;;;;5.80;1.40;;;;;;;11.98;100.00;100099.81;5019586;28;20032;-87
2022/10/02 05:45:48;;;;;;;4.68;1.85;;;;;;;11.94;100.00;100096.97;5019879;28;20179;-86
2022/10/02 05:48:19;;;;;;;4.90;1.80;;;;;;;11.95;100.00;100097.78;5019646;28;20034;-87
2022/10/02 05:50:51;;;;;;;6.22;1.48;;;;;;;11.94;100.00;100096.97;5022133;28;20025;-88
2022/10/02 05:53:42;;;;;;;5.63;1.10;;;;;;;11.97;100.00;100106.41;5017580;28;20450;-87
2022/10/02 05:56:34;;;;;;;4.15;1.35;;;;;;;11.95;100.00;100104.03;4999493;28;20034;-87
2022/10/02 05:59:23;;;;;;;4.70;1.88;;;;;;;11.97;100.00;100117.31;4969033;28;20033;-87
2022/10/02 06:01:50;;;;;;;4.78;1.65;;;;;;;11.96;100.00;100110.28;4999690;28;20049;-87
2022/10/02 06:04:30;;;;;;;5.50;1.65;;;;;;;11.95;100.00;100109.47;5016878;28;20049;-88
2022/10/02 06:07:02;;;;;;;4.97;1.40;;;;;;;11.96;100.00;100116.53;5017295;28;20473;-88
2022/10/02 06:09:35;;;;;;;4.43;1.70;;;;;;;11.97;100.00;100122.78;5012556;28;20517;-87
2022/10/02 06:12:16;;;;;;;5.72;1.60;;;;;;;11.97;100.00;100130.97;5012276;28;20390;-88
2022/10/02 06:14:55;;;;;;;6.28;1.52;;;;;;;11.97;100.00;100133.69;5012608;28;20128;-88
2022/10/02 06:17:32;;;;;;;4.45;1.52;;;;;;;11.98;100.00;100129.81;5009334;28;20026;-84
2022/10/02 06:20:20;;;;;;;7.45;1.38;;;;;;;12.00;100.00;100131.06;4978368;28;20438;-81
2022/10/02 06:22:54;;;;;;;4.95;1.35;;;;;;;12.01;100.00;100132.66;4994566;28;20022;-82
2022/10/02 06:25:29;;;;;;;10.98;2.50;;;;;;;12.04;100.00;100139.34;4978343;28;20048;-81
2022/10/02 06:28:14;;;;;;;5.20;1.63;;;;;;;12.08;100.00;100128.53;5012269;28;20402;-81
2022/10/02 06:30:46;;;;;;;7.10;1.65;;;;;;;12.12;100.00;100141.19;5011977;28;20057;-85
2022/10/02 06:33:16;;;;;;;4.93;1.88;;;;;;;12.16;100.00;100141.28;4994525;28;20041;-86
2022/10/02 06:35:47;;;;;;;6.68;1.85;;;;;;;12.17;100.00;100149.13;5012599;28;20026;-85
2022/10/02 06:38:29;;;;;;;5.05;1.92;;;;;;;12.19;100.00;100146.84;4995020;28;20033;-84
2022/10/02 06:41:29;;;;;;;7.25;2.25;;;;;;;12.24;100.00;100148.53;4998264;28;20034;-86
2022/10/02 06:44:15;;;;;;;9.18;2.58;;;;;;;12.34;100.00;100157.03;5015683;28;20088;-87
2022/10/02 06:46:48;;;;;;;9.10;3.20;;;;;;;12.39;100.00;100149.75;5015721;28;20026;-84
2022/10/02 06:49:52;;;;;;;9.23;2.45;;;;;;;12.40;100.00;100156.78;4998356;28;20273;-86
2022/10/02 06:52:27;;;;;;;7.07;2.53;;;;;;;12.43;100.00;100161.56;4998319;28;20044;-89
2022/10/02 06:55:20;;;;;;;10.15;2.40;;;;;;;12.45;100.00;100167.50;5015721;28;20026;-87
2022/10/02 06:58:14;;;;;;;8.05;2.10;;;;;;;12.48;100.00;100167.59;5017042;28;20052;-87
2022/10/02 07:01:02;;;;;;;8.88;2.72;;;;;;;12.50;100.00;100169.97;5015540;28;20026;-84
2022/10/02 07:03:48;;;;;;;8.32;2.30;;;;;;;12.52;100.00;100163.03;4998431;28;20033;-83
2022/10/02 07:06:37;;;;;;;8.13;2.80;;;;;;;12.55;100.00;100178.72;5015092;28;20132;-81
2022/10/02 07:09:22;;;;;;;6.68;2.72;;;;;;;12.56;100.00;100171.31;5014062;28;20038;-82
2022/10/02 07:12:05;;;;;;;8.50;3.22;;;;;;;12.57;100.00;100165.50;5015028;28;20064;-83
2022/10/02 07:14:45;;;;;;;13.02;3.60;;;;;;;12.59;100.00;100176.88;5014971;28;20030;-83
2022/10/02 07:17:29;;;;;;;10.02;3.20;;;;;;;12.59;100.00;100176.88;5015133;28;20025;-83
2022/10/02 07:20:26;;;;;;;11.07;2.80;;;;;;;12.62;100.00;100175.41;4997304;28;20053;-82
2022/10/02 07:23:08;;;;;;;9.77;3.38;;;;;;;12.65;100.00;100174.72;5014802;28;20048;-82
2022/10/02 07:25:57;;;;;;;6.20;2.38;;;;;;;12.65;100.00;100180.97;5010672;28;20034;-82
2022/10/02 07:28:34;;;;;;;11.25;3.17;;;;;;;12.72;100.00;100179.56;5013918;28;20045;-83
2022/10/02 07:31:33;;;;;;;10.38;2.60;;;;;;;12.75;100.00;100189.78;4996898;28;20128;-81
2022/10/02 07:34:36;;;;;;;10.18;3.33;;;;;;;12.81;100.00;100196.63;5014443;28;20040;-84
2022/10/02 07:37:14;;;;;;;9.27;2.63;;;;;;;12.89;100.00;100209.34;5014725;28;20025;-83
2022/10/02 07:40:17;;;;;;;7.68;2.50;;;;;;;12.90;100.00;100217.19;5014670;28;20101;-84
2022/10/02 07:43:18;;;;;;;5.68;2.28;;;;;;;12.99;100.00;100208.06;5014322;28;20054;-84
2022/10/02 07:45:52;;;;;;;10.43;3.75;;;;;;;13.03;100.00;100212.47;5014351;28;20467;-83
2022/10/02 07:48:45;;;;;;;12.65;4.82;;;;;;;13.07;100.00;100218.03;4980362;28;20076;-84
2022/10/02 07:51:46;;;;;;;6.80;2.55;;;;;;;13.13;100.00;100217.44;5014523;28;20022;-83
2022/10/02 07:54:52;;;;;;;10.68;3.80;;;;;;;13.21;100.00;100212.97;5014597;28;20109;-83
2022/10/02 07:57:38;;;;;;;8.50;2.85;;;;;;;13.20;100.00;100223.13;4980599;28;20041;-84
2022/10/02 08:00:11;;;;;;;7.95;2.72;;;;;;;13.20;100.00;100230.53;5016558;28;20033;-85
2022/10/02 08:02:59;;;;;;;10.20;3.70;;;;;;;13.18;100.00;100224.63;5014517;28;20092;-86
2022/10/02 08:05:43;;;;;;;9.73;2.70;;;;;;;13.20;100.00;100234.06;5013803;28;20471;-86
2022/10/02 08:09:00;;;;;;;9.43;2.90;;;;;;;13.20;100.00;100233.25;4996527;28;20061;-85
2022/10/02 08:11:31;;;;;;;6.95;2.10;;;;;;;13.21;100.00;100240.31;4966455;28;20432;-85
2022/10/02 08:14:02;;;;;;;9.63;2.70;;;;;;;13.18;100.00;100230.09;5017728;28;20021;-85
2022/10/02 08:16:57;;;;;;;8.40;2.20;;;;;;;13.18;100.00;100235.56;5016188;28;20026;-86
2022/10/02 08:19:38;;;;;;;9.32;2.50;;;;;;;13.17;100.00;100239.41;4998600;28;20370;-85
2022/10/02 08:22:24;;;;;;;7.68;2.53;;;;;;;13.13;100.00;100239.31;5000035;28;20322;-84
2022/10/02 08:24:58;;;;;;;13.10;3.17;;;;;;;13.24;100.00;100236.88;5000179;28;20029;-85
2022/10/02 08:27:48;;;;;;;5.25;2.47;;;;;;;13.24;100.00;100239.63;4998907;28;20430;-84
2022/10/02 08:30:17;;;;;;;10.48;2.97;;;;;;;13.37;100.00;100241.16;5014144;28;20034;-84
2022/10/02 08:32:42;;;;;;;6.00;2.45;;;;;;;13.33;100.00;100248.47;5014952;28;20490;-84
2022/10/02 08:35:13;;;;;;;10.70;3.30;;;;;;;13.46;100.00;100252.75;5015183;28;20115;-83
2022/10/02 08:37:54;;;;;;;7.55;2.75;;;;;;;13.58;100.00;100240.13;4981283;28;20220;-84
2022/10/02 08:40:45;;;;;;;10.55;3.15;;;;;;;13.72;100.00;100246.75;5013611;28;20038;-83
2022/10/02 08:43:38;;;;;;;8.27;3.30;;;;;;;13.92;100.00;100238.63;5013562;28;20014;-83
2022/10/02 08:46:13;;;;;;;9.50;3.10;;;;;;;14.09;100.00;100233.56;5013349;28;20030;-83
2022/10/02 08:49:15;;;;;;;8.52;3.92;;;;;;;14.07;100.00;100240.56;5012940;28;20512;-82
2022/10/02 08:52:10;;;;;;;7.03;3.17;;;;;;;14.04;100.00;100244.81;5013149;28;20068;-82
2022/10/02 08:54:59;;;;;;;9.18;3.85;;;;;;;13.92;100.00;100241.38;5013265;28;20104;-83
2022/10/02 08:58:02;;;;;;;10.40;3.42;;;;;;;13.84;100.00;100245.88;4995441;28;20022;-85
2022/10/02 09:01:10;;;;;;;8.38;3.97;;;;;;;13.84;100.00;100251.34;5013043;28;20231;-84
2022/10/02 09:03:57;;;;;;;10.70;3.80;;;;;;;13.77;100.00;100251.16;4985050;28;20033;-82
2022/10/02 09:06:58;;;;;;;11.48;3.28;;;;;;;13.75;100.00;100250.72;5012887;28;20065;-81
2022/10/02 09:09:45;;;;;;;9.45;3.20;;;;;;;13.78;100.00;100250.03;4995248;28;20038;-80
2022/10/02 09:12:57;;;;;;;8.60;3.38;;;;;;;13.83;100.00;100249.75;5012796;28;20032;-81
2022/10/02 09:15:34;;;;;;;6.65;2.78;;;;;;;13.86;100.00;100257.25;4972999;28;20065;-81
2022/10/02 09:18:38;;;;;;;10.75;3.80;;;;;;;13.95;100.00;100263.38;4994896;28;20493;-82
2022/10/02 09:21:18;;;;;;;12.10;3.47;;;;;;;14.01;99.90;100267.44;4965168;28;20038;-81
2022/10/02 09:24:13;;;;;;;10.07;4.28;;;;;;;14.02;99.56;100266.28;5012531;28;20041;-82
2022/10/02 09:27:15;;;;;;;7.18;2.80;;;;;;;14.01;99.78;100261.94;5012749;28;20025;-82
2022/10/02 09:30:02;;;;;;;8.00;3.50;;;;;;;14.11;98.96;100264.16;4994868;28;20050;-81
2022/10/02 09:32:57;;;;;;;8.55;3.50;;;;;;;14.09;98.52;100266.44;4994934;28;20030;-81
2022/10/02 09:35:47;;;;;;;8.88;3.10;;;;;;;14.05;98.56;100267.50;4994800;28;20030;-80
2022/10/02 09:38:37;;;;;;;7.03;3.33;;;;;;;14.17;97.55;100264.69;5011693;28;20069;-81
2022/10/02 09:41:30;;;;;;;8.82;3.38;;;;;;;14.24;96.26;100266.78;5012300;28;20504;-81
2022/10/02 09:44:36;;;;;;;5.82;2.40;;;;;;;14.12;96.31;100273.16;4994666;28;20026;-82
2022/10/02 09:47:10;;;;;;;7.95;2.42;;;;;;;14.10;96.32;100280.91;5012099;28;20033;-82
2022/10/02 09:50:12;;;;;;;11.93;2.55;;;;;;;14.05;96.77;100278.44;5012723;28;20156;-81
2022/10/02 09:52:52;;;;;;;10.95;2.65;;;;;;;14.08;96.65;100285.97;5012339;28;20578;-79
2022/10/02 09:55:41;;;;;;;5.32;2.15;;;;;;;14.05;96.60;100284.72;5012286;28;20548;-81
2022/10/02 09:58:12;;;;;;;5.78;2.17;;;;;;;14.07;96.27;100284.38;5012311;28;20048;-79
2022/10/02 10:01:15;;;;;;;8.88;2.50;;;;;;;14.07;96.39;100285.16;5012189;28;20034;-81
2022/10/02 10:04:14;;;;;;;8.75;2.55;;;;;;;14.25;95.89;100288.31;4994390;28;20065;-82
2022/10/02 10:06:58;;;;;;;5.47;2.67;;;;;;;14.28;95.45;100286.84;5012107;28;20485;-82
2022/10/02 10:09:45;;;;;;;16.50;2.70;;;;;;;14.34;95.14;100279.94;5012478;28;20061;-80
2022/10/02 10:12:48;;;;;;;5.18;1.98;;;;;;;14.51;94.34;100290.53;5011883;28;20022;-80
2022/10/02 10:15:47;;;;;;;6.25;2.35;;;;;;;14.66;94.09;100281.50;5015576;28;20033;-78
2022/10/02 10:18:35;;;;;;;6.65;2.58;;;;;;;14.75;93.68;100295.78;5015985;28;20356;-78
2022/10/02 10:21:37;;;;;;;6.22;2.25;;;;;;;14.80;91.41;100291.97;4998371;28;20490;-78
2022/10/02 10:24:30;;;;;;;6.20;1.77;;;;;;;14.68;91.52;100290.16;4998357;28;20032;-81
2022/10/02 10:27:33;;;;;;;8.30;2.35;;;;;;;14.59;90.96;100292.28;5016321;28;20033;-80
2022/10/02 10:30:17;;;;;;;4.53;2.00;;;;;;;14.48;91.13;100299.47;5015839;28;20076;-81
2022/10/02 10:33:07;;;;;;;10.90;2.40;;;;;;;14.58;91.41;100298.91;4998145;28;20028;-80
2022/10/02 10:36:07;;;;;;;5.55;2.47;;;;;;;14.59;91.64;100303.25;4998245;28;20026;-80
2022/10/02 10:39:13;;;;;;;5.35;1.95;;;;;;;14.53;90.85;100307.41;5015987;28;20104;-80
2022/10/02 10:42:00;;;;;;;7.10;1.90;;;;;;;14.69;90.86;100304.66;4998238;28;20022;-80
2022/10/02 10:44:34;;;;;;;6.03;2.25;;;;;;;14.66;89.65;100303.41;5015479;28;20022;-80
2022/10/02 10:47:42;;;;;;;6.28;2.33;;;;;;;14.69;88.96;100301.91;4997942;28;20041;-79
2022/10/02 10:50:45;;;;;;;7.07;2.20;;;;;;;15.04;88.27;100312.84;5015589;28;20030;-79
2022/10/02 10:53:11;;;;;;;6.43;1.85;;;;;;;14.92;87.59;100315.72;4997516;28;20060;-80
2022/10/02 10:55:47;;;;;;;3.92;2.08;;;;;;;15.02;86.79;100309.69;5015453;28;20018;-80
2022/10/02 10:58:20;;;;;;;7.50;2.47;;;;;;;15.07;85.85;100316.81;5015177;28;20022;-80
2022/10/02 11:01:17;;;;;;;7.05;2.28;;;;;;;15.05;86.10;100315.22;5015198;28;20033;-80
2022/10/02 11:04:01;;;;;;;5.18;1.90;;;;;;;15.37;85.22;100325.28;5002089;28;20058;-80
2022/10/02 11:06:49;;;;;;;7.57;2.00;;;;;;;15.55;82.81;100324.47;4997076;28;20077;-81
2022/10/02 11:09:29;;;;;;;5.97;1.63;;;;;;;15.70;80.97;100311.84;5015163;28;20034;-80
2022/10/02 11:12:15;;;;;;;6.93;1.90;;;;;;;15.48;79.74;100326.28;5014822;28;20109;-82
2022/10/02 11:14:59;;;;;;;6.57;2.50;;;;;;;15.45;79.32;100332.47;5015062;28;20037;-80
2022/10/02 11:17:55;;;;;;;3.72;1.60;;;;;;;15.54;79.80;100346.78;4997213;28;20060;-81
2022/10/02 11:20:58;;;;;;;3.95;1.70;;;;;;;15.58;77.14;100325.69;4944497;28;20070;-80
2022/10/02 11:23:58;;;;;;;5.70;2.00;;;;;;;15.52;78.18;100344.41;5014796;28;20561;-80
2022/10/02 11:26:35;;;;;;;5.45;1.80;;;;;;;15.50;78.79;100338.47;5014813;28;20056;-80
2022/10/02 11:29:24;;;;;;;4.65;1.83;;;;;;;15.56;77.99;100344.47;4996797;28;20076;-80
2022/10/02 11:32:21;;;;;;;4.65;1.70;;;;;;;15.32;76.54;100346.34;5014463;28;20022;-80
2022/10/02 11:34:55;;;;;;;5.65;1.85;;;;;;;15.32;76.46;100348.31;5014709;28;20058;-81
2022/10/02 11:37:27;;;;;;;4.15;1.52;;;;;;;15.69;76.43;100354.16;5014466;28;20036;-80
2022/10/02 11:40:17;;;;;;;5.45;2.00;;;;;;;15.58;76.52;100361.34;5014664;28;20061;-80
2022/10/02 11:43:13;;;;;;;3.78;1.65;;;;;;;15.69;77.03;100358.88;5014654;28;20029;-80
2022/10/02 11:46:05;;;;;;;6.20;1.38;;;;;;;15.70;76.79;100350.25;5014328;28;20088;-80
2022/10/02 11:48:55;;;;;;;4.40;1.45;;;;;;;15.65;76.29;100361.53;5014255;28;20030;-81
2022/10/02 11:51:44;;;;;;;7.63;2.00;;;;;;;15.72;75.96;100361.66;5014166;28;20026;-80
2022/10/02 11:54:36;;;;;;;5.68;1.90;;;;;;;15.66;75.00;100365.88;5013989;28;20022;-79
2022/10/02 11:57:20;;;;;;;9.02;1.83;;;;;;;15.55;74.53;100362.88;5014141;28;20093;-79
2022/10/02 11:59:54;;;;;;;7.07;1.77;;;;;;;15.58;74.51;100358.63;5013809;28;20492;-80
2022/10/02 12:02:37;;;;;;;5.15;1.80;;;;;;;16.09;74.12;100361.16;5014005;28;20037;-80
2022/10/02 12:05:24;;;;;;;3.20;1.27;;;;;;;16.17;73.24;100358.19;5014042;28;20030;-79
2022/10/02 12:08:29;;;;;;;5.57;1.63;;;;;;;16.07;72.45;100352.50;5013718;28;20493;-80
2022/10/02 12:11:07;;;;;;;5.43;1.92;;;;;;;16.13;71.19;100356.53;5014016;28;20029;-80
2022/10/02 12:14:02;;;;;;;4.75;1.50;;;;;;;16.20;70.83;100364.91;5013917;28;20036;-80
2022/10/02 12:17:00;;;;;;;6.85;1.75;;;;;;;16.13;72.01;100368.31;5013747;28;20033;-80
2022/10/02 12:26:57;;;;;;;;;;;;;;;16.02;71.55;100361.03;4970543;28;20045;-80
2022/10/02 12:28:59;;;;;;;5.75;1.42;;;;;;;15.91;71.21;100358.09;5013636;28;20068;-80
2022/10/02 12:31:49;;;;;;;4.68;1.52;;;;;;;15.77;70.67;100366.06;5013563;28;20510;-80
2022/10/02 12:34:24;;;;;;;5.00;1.30;;;;;;;15.89;71.32;100366.69;5013337;28;20026;-80
2022/10/02 12:37:09;;;;;;;6.63;1.45;;;;;;;15.81;70.44;100362.25;5012592;28;20506;-80
2022/10/02 12:40:13;;;;;;;4.53;1.90;;;;;;;15.70;70.95;100364.00;5002990;28;20033;-81